createdAt,value
2018-11-22T00:00:26.852Z,93.10
2018-11-22T00:01:26.848Z,93.57
2018-11-22T00:02:26.826Z,92.52
2018-11-22T00:03:26.815Z,92.73
2018-11-22T00:04:26.816Z,92.69
2018-11-22T00:05:26.792Z,92.94
2018-11-22T00:06:26.787Z,92.73
2018-11-22T00:07:26.769Z,93.00
2018-11-22T00:08:26.759Z,93.00
2018-11-22T00:09:26.762Z,92.73
2018-11-22T00:10:26.750Z,93.04
2018-11-22T00:11:26.725Z,92.69
2018-11-22T00:12:26.726Z,93.21
2018-11-22T00:13:26.704Z,93.31
2018-11-22T00:14:26.704Z,93.10
2018-11-22T00:15:26.681Z,93.00
2018-11-22T00:16:26.672Z,93.84
2018-11-22T00:17:26.703Z,92.58
2018-11-22T00:18:26.657Z,92.47
2018-11-22T00:19:26.638Z,92.90
2018-11-22T00:20:26.628Z,92.41
2018-11-22T00:21:26.619Z,92.58
2018-11-22T00:22:26.606Z,91.96
2018-11-22T00:23:26.628Z,93.00
2018-11-22T00:24:26.593Z,93.00
2018-11-22T00:25:26.573Z,93.04
2018-11-22T00:26:26.561Z,92.00
2018-11-22T00:27:26.549Z,93.10
2018-11-22T00:28:26.550Z,92.16
2018-11-22T00:29:26.541Z,92.52
2018-11-22T00:30:26.525Z,91.58
2018-11-22T00:31:26.507Z,92.31
2018-11-22T00:32:26.495Z,92.00
2018-11-22T00:33:26.485Z,92.94
2018-11-22T00:34:26.486Z,93.04
2018-11-22T00:35:26.463Z,93.15
2018-11-22T00:36:26.461Z,93.63
2018-11-22T00:37:26.440Z,92.94
2018-11-22T00:38:26.429Z,93.15
2018-11-22T00:39:26.448Z,92.83
2018-11-22T00:40:26.408Z,93.15
2018-11-22T00:41:26.397Z,93.67
2018-11-22T00:42:26.394Z,93.25
2018-11-22T00:43:26.373Z,93.57
2018-11-22T00:44:26.363Z,93.52
2018-11-22T00:45:26.390Z,92.90
2018-11-22T00:46:26.340Z,93.00
2018-11-22T00:47:26.330Z,92.27
2018-11-22T00:48:26.324Z,91.96
2018-11-22T00:49:26.310Z,92.37
2018-11-22T00:50:26.296Z,92.16
2018-11-22T00:51:26.329Z,93.04
2018-11-22T00:52:26.275Z,92.47
2018-11-22T00:53:26.266Z,93.10
2018-11-22T00:54:26.262Z,92.69
2018-11-22T00:55:26.244Z,92.37
2018-11-22T00:56:26.232Z,93.10
2018-11-22T00:57:26.233Z,91.58
2018-11-22T00:58:26.211Z,92.79
2018-11-22T00:59:26.198Z,92.47
2018-11-22T01:00:26.200Z,92.90
2018-11-22T01:01:26.215Z,93.10
2018-11-22T01:02:26.164Z,92.16
2018-11-22T01:03:26.153Z,92.37
2018-11-22T01:04:26.145Z,92.90
2018-11-22T01:05:26.132Z,93.00
2018-11-22T01:06:26.127Z,92.06
2018-11-22T01:07:26.141Z,93.21
2018-11-22T01:08:26.100Z,93.10
2018-11-22T01:09:26.090Z,93.00
2018-11-22T01:10:26.078Z,91.96
2018-11-22T01:11:26.068Z,91.64
2018-11-22T01:12:26.062Z,92.00
2018-11-22T01:13:26.055Z,91.54
2018-11-22T01:14:26.033Z,91.85
2018-11-22T01:15:26.022Z,93.10
2018-11-22T01:16:26.012Z,92.90
2018-11-22T01:17:26.012Z,92.16
2018-11-22T01:18:25.996Z,92.16
2018-11-22T01:19:25.979Z,92.58
2018-11-22T01:20:25.980Z,93.25
2018-11-22T01:21:25.957Z,92.90
2018-11-22T01:22:25.945Z,93.10
2018-11-22T01:23:25.937Z,92.83
2018-11-22T01:24:25.945Z,92.58
2018-11-22T01:25:25.912Z,93.04
2018-11-22T01:26:25.903Z,93.25
2018-11-22T01:27:25.891Z,92.52
2018-11-22T01:28:25.880Z,93.15
2018-11-22T01:29:25.881Z,93.25
2018-11-22T01:30:25.865Z,93.15
2018-11-22T01:31:25.847Z,93.25
2018-11-22T01:32:25.835Z,93.88
2018-11-22T01:33:25.828Z,92.73
2018-11-22T01:34:25.827Z,93.63
2018-11-22T01:35:25.803Z,93.67
2018-11-22T01:36:25.800Z,93.25
2018-11-22T01:37:25.783Z,93.31
2018-11-22T01:38:25.769Z,94.29
2018-11-22T01:39:25.778Z,93.94
2018-11-22T01:40:25.747Z,93.35
2018-11-22T01:41:25.735Z,93.57
2018-11-22T01:42:25.731Z,94.19
2018-11-22T01:43:25.715Z,94.50
2018-11-22T01:44:25.704Z,93.67
2018-11-22T01:45:25.705Z,93.35
2018-11-22T01:46:25.682Z,94.40
2018-11-22T01:47:25.672Z,94.40
2018-11-22T01:48:25.667Z,94.09
2018-11-22T01:49:25.649Z,94.04
2018-11-22T01:50:25.652Z,94.40
2018-11-22T01:51:25.639Z,94.50
2018-11-22T01:52:25.615Z,94.50
2018-11-22T01:53:25.604Z,93.98
2018-11-22T01:54:25.600Z,94.19
2018-11-22T01:55:25.594Z,93.67
2018-11-22T01:56:25.588Z,93.67
2018-11-22T01:57:25.560Z,93.98
2018-11-22T01:58:25.549Z,94.19
2018-11-22T01:59:25.540Z,94.50
2018-11-22T02:00:25.534Z,94.09
2018-11-22T02:01:25.536Z,94.40
2018-11-22T02:02:25.506Z,94.29
2018-11-22T02:03:25.496Z,94.19
2018-11-22T02:04:25.492Z,94.61
2018-11-22T02:05:25.474Z,94.50
2018-11-22T02:06:25.471Z,93.98
2018-11-22T02:07:25.462Z,94.40
2018-11-22T02:08:25.455Z,94.29
2018-11-22T02:09:25.431Z,94.40
2018-11-22T02:10:25.418Z,94.61
2018-11-22T02:11:25.408Z,94.29
2018-11-22T02:12:25.401Z,94.40
2018-11-22T02:13:25.417Z,94.50
2018-11-22T02:14:25.374Z,94.40
2018-11-22T02:15:25.362Z,94.29
2018-11-22T02:16:25.352Z,93.88
2018-11-22T02:17:25.342Z,94.50
2018-11-22T02:18:25.336Z,93.88
2018-11-22T02:19:25.359Z,94.19
2018-11-22T02:20:25.308Z,93.77
2018-11-22T02:21:25.297Z,93.57
2018-11-22T02:22:25.286Z,93.67
2018-11-22T02:23:25.277Z,93.46
2018-11-22T02:24:25.270Z,93.25
2018-11-22T02:25:25.267Z,93.15
2018-11-22T02:26:25.242Z,92.63
2018-11-22T02:27:25.253Z,93.25
2018-11-22T02:28:25.222Z,93.15
2018-11-22T02:29:25.226Z,92.94
2018-11-22T02:30:25.238Z,93.25
2018-11-22T02:31:25.195Z,93.57
2018-11-22T02:32:25.178Z,93.46
2018-11-22T02:33:25.168Z,92.94
2018-11-22T02:34:25.155Z,92.63
2018-11-22T02:35:25.149Z,92.94
2018-11-22T02:36:25.173Z,93.46
2018-11-22T02:37:25.122Z,93.25
2018-11-22T02:38:25.112Z,93.15
2018-11-22T02:39:25.100Z,92.63
2018-11-22T02:40:25.091Z,93.15
2018-11-22T02:41:25.079Z,92.00
2018-11-22T02:42:25.088Z,92.63
2018-11-22T02:43:25.057Z,92.94
2018-11-22T02:44:25.045Z,93.15
2018-11-22T02:45:25.036Z,92.94
2018-11-22T02:46:25.024Z,93.25
2018-11-22T02:47:25.024Z,92.41
2018-11-22T02:48:25.006Z,93.25
2018-11-22T02:49:24.989Z,93.15
2018-11-22T02:50:24.980Z,92.52
2018-11-22T02:51:24.970Z,93.15
2018-11-22T02:52:24.993Z,93.46
2018-11-22T02:53:24.948Z,93.46
2018-11-22T02:54:24.945Z,93.67
2018-11-22T02:55:24.925Z,93.46
2018-11-22T02:56:24.913Z,94.40
2018-11-22T02:57:24.904Z,94.50
2018-11-22T02:58:24.925Z,94.40
2018-11-22T02:59:24.880Z,94.92
2018-11-22T03:00:24.875Z,94.71
2018-11-22T03:01:24.858Z,94.71
2018-11-22T03:02:24.852Z,95.65
2018-11-22T03:03:24.836Z,93.98
2018-11-22T03:04:24.846Z,94.82
2018-11-22T03:05:24.817Z,94.55
2018-11-22T03:06:24.815Z,94.40
2018-11-22T03:07:24.793Z,94.71
2018-11-22T03:08:24.783Z,94.34
2018-11-22T03:09:24.773Z,93.50
2018-11-22T03:10:24.780Z,93.77
2018-11-22T03:11:24.749Z,93.61
2018-11-22T03:12:24.746Z,94.19
2018-11-22T03:13:24.729Z,94.82
2018-11-22T03:14:24.715Z,94.29
2018-11-22T03:15:24.706Z,93.15
2018-11-22T03:16:24.707Z,93.67
2018-11-22T03:17:24.684Z,93.46
2018-11-22T03:18:24.680Z,93.25
2018-11-22T03:19:24.664Z,93.25
2018-11-22T03:20:24.652Z,93.46
2018-11-22T03:21:24.652Z,93.46
2018-11-22T03:22:24.629Z,93.77
2018-11-22T03:23:24.620Z,93.57
2018-11-22T03:24:24.615Z,92.94
2018-11-22T03:25:24.596Z,92.94
2018-11-22T03:26:24.618Z,93.25
2018-11-22T03:27:24.577Z,92.52
2018-11-22T03:28:24.564Z,92.21
2018-11-22T03:29:24.553Z,92.10
2018-11-22T03:30:24.548Z,91.79
2018-11-22T03:31:24.532Z,93.04
2018-11-22T03:32:24.543Z,91.58
2018-11-22T03:33:24.509Z,91.79
2018-11-22T03:34:24.497Z,92.21
2018-11-22T03:35:24.486Z,93.15
2018-11-22T03:36:24.485Z,92.63
2018-11-22T03:37:24.500Z,92.00
2018-11-22T03:38:24.454Z,91.89
2018-11-22T03:39:24.442Z,91.79
2018-11-22T03:40:24.432Z,91.79
2018-11-22T03:41:24.421Z,91.79
2018-11-22T03:42:24.420Z,91.54
2018-11-22T03:43:24.412Z,91.79
2018-11-22T03:44:24.386Z,91.79
2018-11-22T03:45:24.374Z,92.00
2018-11-22T03:46:24.366Z,92.10
2018-11-22T03:47:24.360Z,91.58
2018-11-22T03:48:24.364Z,91.69
2018-11-22T03:49:24.365Z,92.06
2018-11-22T03:50:24.321Z,91.58
2018-11-22T03:51:24.311Z,91.22
2018-11-22T03:52:24.300Z,91.96
2018-11-22T03:53:24.287Z,91.79
2018-11-22T03:54:24.284Z,92.00
2018-11-22T03:55:24.304Z,91.12
2018-11-22T03:56:24.255Z,92.21
2018-11-22T03:57:24.247Z,91.43
2018-11-22T03:58:24.234Z,91.27
2018-11-22T03:59:24.223Z,91.27
2018-11-22T04:00:24.217Z,90.95
2018-11-22T04:01:24.222Z,91.47
2018-11-22T04:02:24.193Z,91.43
2018-11-22T04:03:24.178Z,91.47
2018-11-22T04:04:24.167Z,90.64
2018-11-22T04:05:24.157Z,91.06
2018-11-22T04:06:24.153Z,92.21
2018-11-22T04:07:24.168Z,91.27
2018-11-22T04:08:24.125Z,91.33
2018-11-22T04:09:24.120Z,91.16
2018-11-22T04:10:24.102Z,90.50
2018-11-22T04:11:24.096Z,91.06
2018-11-22T04:12:24.079Z,92.00
2018-11-22T04:13:24.080Z,92.21
2018-11-22T04:14:24.057Z,91.96
2018-11-22T04:15:24.052Z,92.00
2018-11-22T04:16:24.049Z,91.37
2018-11-22T04:17:24.034Z,91.58
2018-11-22T04:18:24.014Z,92.83
2018-11-22T04:19:24.002Z,92.41
2018-11-22T04:20:23.992Z,92.21
2018-11-22T04:21:23.999Z,92.21
2018-11-22T04:22:23.970Z,91.37
2018-11-22T04:23:23.965Z,91.79
2018-11-22T04:24:23.952Z,92.41
2018-11-22T04:25:23.937Z,92.63
2018-11-22T04:26:24.246Z,92.47
2018-11-22T04:27:23.917Z,91.37
2018-11-22T04:28:23.905Z,91.37
2018-11-22T04:29:23.899Z,90.75
2018-11-22T04:30:23.881Z,90.95
2018-11-22T04:31:23.901Z,91.27
2018-11-22T04:32:23.860Z,91.69
2018-11-22T04:33:23.850Z,91.16
2018-11-22T04:34:23.839Z,91.47
2018-11-22T04:35:23.835Z,91.22
2018-11-22T04:36:23.815Z,90.85
2018-11-22T04:37:23.820Z,91.43
2018-11-22T04:38:23.794Z,91.27
2018-11-22T04:39:23.783Z,91.96
2018-11-22T04:40:23.772Z,91.54
2018-11-22T04:41:23.764Z,90.91
2018-11-22T04:42:23.782Z,90.22
2018-11-22T04:43:23.741Z,90.50
2018-11-22T04:44:23.734Z,91.12
2018-11-22T04:45:23.717Z,91.12
2018-11-22T04:46:23.705Z,91.43
2018-11-22T04:47:23.707Z,91.43
2018-11-22T04:48:23.718Z,91.33
2018-11-22T04:49:23.673Z,90.91
2018-11-22T04:50:23.662Z,90.28
2018-11-22T04:51:23.652Z,90.91
2018-11-22T04:52:23.643Z,91.12
2018-11-22T04:53:23.637Z,90.70
2018-11-22T04:54:23.630Z,90.60
2018-11-22T04:55:23.607Z,90.50
2018-11-22T04:56:23.597Z,91.22
2018-11-22T04:57:23.585Z,91.96
2018-11-22T04:58:23.576Z,91.02
2018-11-22T04:59:23.585Z,91.33
2018-11-22T05:00:23.552Z,90.81
2018-11-22T05:01:23.540Z,90.08
2018-11-22T05:02:23.530Z,90.60
2018-11-22T05:03:23.537Z,90.91
2018-11-22T05:04:26.849Z,91.02
2018-11-22T05:05:23.505Z,89.87
2018-11-22T05:06:23.488Z,90.70
2018-11-22T05:07:23.489Z,91.54
2018-11-22T05:08:23.463Z,92.16
2018-11-22T05:09:23.461Z,91.54
2018-11-22T05:10:23.454Z,91.43
2018-11-22T05:11:23.442Z,91.43
2018-11-22T05:12:23.434Z,91.54
2018-11-22T05:13:23.412Z,91.37
2018-11-22T05:14:23.398Z,91.64
2018-11-22T05:15:23.391Z,91.22
2018-11-22T05:16:23.389Z,91.12
2018-11-22T05:17:23.408Z,92.06
2018-11-22T05:18:23.354Z,91.22
2018-11-22T05:19:23.349Z,91.12
2018-11-22T05:20:23.334Z,91.85
2018-11-22T05:21:23.322Z,91.85
2018-11-22T05:22:23.310Z,92.00
2018-11-22T05:23:23.325Z,91.96
2018-11-22T05:24:23.288Z,91.12
2018-11-22T05:25:23.325Z,91.85
2018-11-22T05:26:23.266Z,91.12
2018-11-22T05:27:23.255Z,91.12
2018-11-22T05:28:23.245Z,91.85
2018-11-22T05:29:23.240Z,92.16
2018-11-22T05:30:23.221Z,91.64
2018-11-22T05:31:23.240Z,91.12
2018-11-22T05:32:23.200Z,92.37
2018-11-22T05:33:23.189Z,91.75
2018-11-22T05:34:23.190Z,91.96
2018-11-22T05:35:23.175Z,93.10
2018-11-22T05:36:23.155Z,91.43
2018-11-22T05:37:23.180Z,91.96
2018-11-22T05:38:23.136Z,92.90
2018-11-22T05:39:23.122Z,93.10
2018-11-22T05:40:23.111Z,93.04
2018-11-22T05:41:23.107Z,92.58
2018-11-22T05:42:23.091Z,93.10
2018-11-22T05:43:23.090Z,92.47
2018-11-22T05:44:23.069Z,92.47
2018-11-22T05:45:23.057Z,91.79
2018-11-22T05:46:23.046Z,91.89
2018-11-22T05:47:23.045Z,92.52
2018-11-22T05:48:23.037Z,93.46
2018-11-22T05:49:23.016Z,93.15
2018-11-22T05:50:23.002Z,94.61
2018-11-22T05:51:22.992Z,94.04
2018-11-22T05:52:22.979Z,93.63
2018-11-22T05:53:22.991Z,93.98
2018-11-22T05:54:22.959Z,93.67
2018-11-22T05:55:22.980Z,94.09
2018-11-22T05:56:22.938Z,94.61
2018-11-22T05:57:22.928Z,94.29
2018-11-22T05:58:22.916Z,94.09
2018-11-22T05:59:22.911Z,94.50
2018-11-22T06:00:22.895Z,94.82
2018-11-22T06:01:22.900Z,94.40
2018-11-22T06:02:22.875Z,94.71
2018-11-22T06:03:22.863Z,95.34
2018-11-22T06:04:22.853Z,95.13
2018-11-22T06:05:22.844Z,95.13
2018-11-22T06:06:22.827Z,95.13
2018-11-22T06:07:22.829Z,95.03
2018-11-22T06:08:22.819Z,95.13
2018-11-22T06:09:22.794Z,95.97
2018-11-22T06:10:22.783Z,95.03
2018-11-22T06:11:22.779Z,95.44
2018-11-22T06:12:22.794Z,95.55
2018-11-22T06:13:22.751Z,95.55
2018-11-22T06:14:22.741Z,96.07
2018-11-22T06:15:22.728Z,95.76
2018-11-22T06:16:22.718Z,95.23
2018-11-22T06:17:22.716Z,95.23
2018-11-22T06:18:22.710Z,95.03
2018-11-22T06:19:22.686Z,95.13
2018-11-22T06:20:22.686Z,94.92
2018-11-22T06:21:22.663Z,95.65
2018-11-22T06:22:22.653Z,96.17
2018-11-22T06:23:22.653Z,96.07
2018-11-22T06:24:22.631Z,94.92
2018-11-22T06:25:22.655Z,95.34
2018-11-22T06:26:22.607Z,95.13
2018-11-22T06:27:22.596Z,95.44
2018-11-22T06:28:22.587Z,95.97
2018-11-22T06:29:22.585Z,95.65
2018-11-22T06:30:22.565Z,96.17
2018-11-22T06:31:22.567Z,96.17
2018-11-22T06:32:22.543Z,95.97
2018-11-22T06:33:22.531Z,95.86
2018-11-22T06:34:22.521Z,95.55
2018-11-22T06:35:22.518Z,95.03
2018-11-22T06:36:22.511Z,95.03
2018-11-22T06:37:22.489Z,95.44
2018-11-22T06:38:22.477Z,94.98
2018-11-22T06:39:22.467Z,95.44
2018-11-22T06:40:22.487Z,94.40
2018-11-22T06:41:22.456Z,94.61
2018-11-22T06:42:22.432Z,94.82
2018-11-22T06:43:22.421Z,95.65
2018-11-22T06:44:22.411Z,94.71
2018-11-22T06:45:22.400Z,94.92
2018-11-22T06:46:22.423Z,95.23
2018-11-22T06:47:22.387Z,95.65
2018-11-22T06:48:22.366Z,94.82
2018-11-22T06:49:22.359Z,94.92
2018-11-22T06:50:22.349Z,94.50
2018-11-22T06:51:22.333Z,95.44
2018-11-22T06:52:22.356Z,95.65
2018-11-22T06:53:22.319Z,95.34
2018-11-22T06:54:22.302Z,95.09
2018-11-22T06:55:22.290Z,94.46
2018-11-22T06:56:22.281Z,95.13
2018-11-22T06:57:22.267Z,95.03
2018-11-22T06:58:22.269Z,95.23
2018-11-22T06:59:22.251Z,95.13
2018-11-22T07:00:22.234Z,95.13
2018-11-22T07:01:22.225Z,94.50
2018-11-22T07:02:22.212Z,94.09
2018-11-22T07:03:22.216Z,94.40
2018-11-22T07:04:22.192Z,94.71
2018-11-22T07:05:22.186Z,95.34
2018-11-22T07:06:22.170Z,94.71
2018-11-22T07:07:22.158Z,94.92
2018-11-22T07:08:22.167Z,94.46
2018-11-22T07:09:22.135Z,94.82
2018-11-22T07:10:22.124Z,94.61
2018-11-22T07:11:22.122Z,95.23
2018-11-22T07:12:22.104Z,94.67
2018-11-22T07:13:22.091Z,94.61
2018-11-22T07:14:22.092Z,94.40
2018-11-22T07:15:22.071Z,94.50
2018-11-22T07:16:22.060Z,94.82
2018-11-22T07:17:22.057Z,95.13
2018-11-22T07:18:22.044Z,94.35
2018-11-22T07:19:22.058Z,94.19
2018-11-22T07:20:22.014Z,94.71
2018-11-22T07:21:22.005Z,94.92
2018-11-22T07:22:21.993Z,94.19
2018-11-22T07:23:21.992Z,94.67
2018-11-22T07:24:21.972Z,95.61
2018-11-22T07:25:22.000Z,95.13
2018-11-22T07:26:21.947Z,94.78
2018-11-22T07:27:21.940Z,94.78
2018-11-22T07:28:21.926Z,94.78
2018-11-22T07:29:21.924Z,94.25
2018-11-22T07:30:21.904Z,94.29
2018-11-22T07:31:21.908Z,94.78
2018-11-22T07:32:21.882Z,94.46
2018-11-22T07:33:21.885Z,94.61
2018-11-22T07:34:21.862Z,94.40
2018-11-22T07:35:21.858Z,94.57
2018-11-22T07:36:21.842Z,94.78
2018-11-22T07:37:21.828Z,94.35
2018-11-22T07:38:21.831Z,94.35
2018-11-22T07:39:21.807Z,94.57
2018-11-22T07:40:21.794Z,94.57
2018-11-22T07:41:21.792Z,94.15
2018-11-22T07:42:21.772Z,93.41
2018-11-22T07:43:21.774Z,94.15
2018-11-22T07:44:21.752Z,93.52
2018-11-22T07:45:21.739Z,93.10
2018-11-22T07:46:21.729Z,93.52
2018-11-22T07:47:21.725Z,94.25
2018-11-22T07:48:21.749Z,93.10
2018-11-22T07:49:21.696Z,92.79
2018-11-22T07:50:21.685Z,93.10
2018-11-22T07:51:21.673Z,92.69
2018-11-22T07:52:21.662Z,93.21
2018-11-22T07:53:21.663Z,93.10
2018-11-22T07:54:21.686Z,93.41
2018-11-22T07:55:21.633Z,93.21
2018-11-22T07:56:21.619Z,93.21
2018-11-22T07:57:21.608Z,93.10
2018-11-22T07:58:21.595Z,93.41
2018-11-22T07:59:21.592Z,93.52
2018-11-22T08:00:21.604Z,93.52
2018-11-22T08:01:21.564Z,93.21
2018-11-22T08:02:21.552Z,93.10
2018-11-22T08:03:21.542Z,93.52
2018-11-22T08:04:21.530Z,93.52
2018-11-22T08:05:21.525Z,94.35
2018-11-22T08:06:21.524Z,93.31
2018-11-22T08:07:21.497Z,93.10
2018-11-22T08:08:21.486Z,93.41
2018-11-22T08:09:21.476Z,93.10
2018-11-22T08:10:21.479Z,93.48
2018-11-22T08:11:21.462Z,93.41
2018-11-22T08:12:25.810Z,93.21
2018-11-22T08:13:21.432Z,93.21
2018-11-22T08:14:21.421Z,93.63
2018-11-22T08:15:21.421Z,93.63
2018-11-22T08:16:21.398Z,93.10
2018-11-22T08:17:21.395Z,93.06
2018-11-22T08:18:21.378Z,92.96
2018-11-22T08:19:21.379Z,93.16
2018-11-22T08:20:21.356Z,93.16
2018-11-22T08:21:21.357Z,92.85
2018-11-22T08:22:21.334Z,92.75
2018-11-22T08:23:21.333Z,93.27
2018-11-22T08:24:21.323Z,92.96
2018-11-22T08:25:21.302Z,93.37
2018-11-22T08:26:21.289Z,92.85
2018-11-22T08:27:21.278Z,92.96
2018-11-22T08:28:21.303Z,92.54
2018-11-22T08:29:21.261Z,93.27
2018-11-22T08:30:21.248Z,93.27
2018-11-22T08:31:21.236Z,92.96
2018-11-22T08:32:21.225Z,92.96
2018-11-22T08:33:21.214Z,92.54
2018-11-22T08:34:21.256Z,92.85
2018-11-22T08:35:21.209Z,93.06
2018-11-22T08:36:21.179Z,91.71
2018-11-22T08:37:21.168Z,92.44
2018-11-22T08:38:21.159Z,92.33
2018-11-22T08:39:21.159Z,92.85
2018-11-22T08:40:21.134Z,92.33
2018-11-22T08:41:21.132Z,92.96
2018-11-22T08:42:21.116Z,92.75
2018-11-22T08:43:21.103Z,92.44
2018-11-22T08:44:21.103Z,92.33
2018-11-22T08:45:21.081Z,92.85
2018-11-22T08:46:21.069Z,92.85
2018-11-22T08:47:21.081Z,92.02
2018-11-22T08:48:21.068Z,92.02
2018-11-22T08:49:21.037Z,93.02
2018-11-22T08:50:21.026Z,92.60
2018-11-22T08:51:21.016Z,91.04
2018-11-22T08:52:21.006Z,91.66
2018-11-22T08:53:21.003Z,92.44
2018-11-22T08:54:20.995Z,91.46
2018-11-22T08:55:20.983Z,91.87
2018-11-22T08:56:20.961Z,91.77
2018-11-22T08:57:20.949Z,91.97
2018-11-22T08:58:20.938Z,91.71
2018-11-22T08:59:21.092Z,91.71
2018-11-22T09:00:20.916Z,92.81
2018-11-22T09:01:20.908Z,91.87
2018-11-22T09:02:20.896Z,91.81
2018-11-22T09:03:20.883Z,91.71
2018-11-22T09:04:20.880Z,91.50
2018-11-22T09:05:20.903Z,91.91
2018-11-22T09:06:20.850Z,91.14
2018-11-22T09:07:20.838Z,91.25
2018-11-22T09:08:20.827Z,91.77
2018-11-22T09:09:20.815Z,92.12
2018-11-22T09:10:20.807Z,91.66
2018-11-22T09:11:20.835Z,91.97
2018-11-22T09:12:20.784Z,91.77
2018-11-22T09:13:20.772Z,91.97
2018-11-22T09:14:20.762Z,91.66
2018-11-22T09:15:20.755Z,91.25
2018-11-22T09:16:20.741Z,91.66
2018-11-22T09:17:20.753Z,91.35
2018-11-22T09:18:20.732Z,91.35
2018-11-22T09:19:20.709Z,91.77
2018-11-22T09:20:20.696Z,92.03
2018-11-22T09:21:20.699Z,91.35
2018-11-22T09:22:20.706Z,91.14
2018-11-22T09:23:20.668Z,91.66
2018-11-22T09:24:24.247Z,91.04
2018-11-22T09:25:20.642Z,91.56
2018-11-22T09:26:20.631Z,91.97
2018-11-22T09:27:20.621Z,91.04
2018-11-22T09:28:20.688Z,91.00
2018-11-22T09:29:20.606Z,91.25
2018-11-22T09:30:20.588Z,91.35
2018-11-22T09:31:20.576Z,90.62
2018-11-22T09:32:20.568Z,91.83
2018-11-22T09:33:20.558Z,90.89
2018-11-22T09:34:20.576Z,91.20
2018-11-22T09:35:20.576Z,91.20
2018-11-22T09:36:20.522Z,90.58
2018-11-22T09:37:20.510Z,91.41
2018-11-22T09:38:20.499Z,90.37
2018-11-22T09:39:20.488Z,91.20
2018-11-22T09:40:20.512Z,90.89
2018-11-22T09:41:20.469Z,91.00
2018-11-22T09:42:20.519Z,90.89
2018-11-22T09:43:20.444Z,90.89
2018-11-22T09:44:20.431Z,91.41
2018-11-22T09:45:20.422Z,91.52
2018-11-22T09:46:20.421Z,91.62
2018-11-22T09:47:20.408Z,91.20
2018-11-22T09:48:20.389Z,91.20
2018-11-22T09:49:20.378Z,91.41
2018-11-22T09:50:20.367Z,91.83
2018-11-22T09:51:20.376Z,91.20
2018-11-22T09:52:20.346Z,91.72
2018-11-22T09:53:20.340Z,91.62
2018-11-22T09:54:20.324Z,91.31
2018-11-22T09:55:20.312Z,91.93
2018-11-22T09:56:20.302Z,91.31
2018-11-22T09:57:20.302Z,92.03
2018-11-22T09:58:20.281Z,91.41
2018-11-22T09:59:20.398Z,91.68
2018-11-22T10:00:20.262Z,91.68
2018-11-22T10:01:20.247Z,91.31
2018-11-22T10:02:20.235Z,91.83
2018-11-22T10:03:20.262Z,92.03
2018-11-22T10:04:20.213Z,92.77
2018-11-22T10:05:20.446Z,91.83
2018-11-22T10:06:20.192Z,92.03
2018-11-22T10:07:20.182Z,91.20
2018-11-22T10:08:20.177Z,91.62
2018-11-22T10:09:20.240Z,91.62
2018-11-22T10:10:20.160Z,91.93
2018-11-22T10:11:20.165Z,92.03
2018-11-22T10:12:20.177Z,91.41
2018-11-22T10:13:20.115Z,91.52
2018-11-22T10:14:20.104Z,92.77
2018-11-22T10:15:20.103Z,92.66
2018-11-22T10:16:20.082Z,91.93
2018-11-22T10:17:20.077Z,91.37
2018-11-22T10:18:20.060Z,92.03
2018-11-22T10:19:20.048Z,91.83
2018-11-22T10:20:20.049Z,91.83
2018-11-22T10:21:20.027Z,92.03
2018-11-22T10:22:20.046Z,91.89
2018-11-22T10:23:20.034Z,91.89
2018-11-22T10:24:20.067Z,92.00
2018-11-22T10:25:19.982Z,91.72
2018-11-22T10:26:19.971Z,92.00
2018-11-22T10:27:19.962Z,91.27
2018-11-22T10:28:19.950Z,91.47
2018-11-22T10:29:20.013Z,91.78
2018-11-22T10:30:19.999Z,91.16
2018-11-22T10:31:19.918Z,91.78
2018-11-22T10:32:19.918Z,91.27
2018-11-22T10:33:19.895Z,92.00
2018-11-22T10:34:19.884Z,91.47
2018-11-22T10:35:20.035Z,91.27
2018-11-22T10:36:19.861Z,91.78
2018-11-22T10:37:19.864Z,91.68
2018-11-22T10:38:19.905Z,91.68
2018-11-22T10:39:53.635Z,92.83
2018-11-22T10:40:53.626Z,91.89
2018-11-22T10:41:53.623Z,91.78
2018-11-22T10:42:53.604Z,91.16
2018-11-22T10:43:53.590Z,90.95
2018-11-22T10:44:53.578Z,91.06
2018-11-22T10:45:53.606Z,91.89
2018-11-22T10:46:53.558Z,91.37
2018-11-22T10:47:53.545Z,91.27
2018-11-22T10:48:53.545Z,92.00
2018-11-22T10:49:53.524Z,92.00
2018-11-22T10:50:53.513Z,90.95
2018-11-22T10:51:53.534Z,91.06
2018-11-22T10:52:53.490Z,90.85
2018-11-22T10:53:53.486Z,91.37
2018-11-22T10:54:53.468Z,91.58
2018-11-22T10:55:53.457Z,91.27
2018-11-22T10:56:53.447Z,91.06
2018-11-22T10:57:53.991Z,91.37
2018-11-22T10:58:53.423Z,90.39
2018-11-22T10:59:53.421Z,90.44
2018-11-22T11:00:53.401Z,89.91
2018-11-22T11:01:53.393Z,90.85
2018-11-22T11:02:53.380Z,91.16
2018-11-22T11:03:53.382Z,90.70
2018-11-22T11:04:53.358Z,91.22
2018-11-22T11:05:53.371Z,91.22
2018-11-22T11:06:53.337Z,90.70
2018-11-22T11:07:53.438Z,90.91
2018-11-22T11:08:53.318Z,90.60
2018-11-22T11:09:53.303Z,90.75
2018-11-22T11:10:53.291Z,91.37
2018-11-22T11:11:53.287Z,90.81
2018-11-22T11:12:53.269Z,90.08
2018-11-22T11:13:53.270Z,90.91
2018-11-22T11:14:53.285Z,91.02
2018-11-22T11:15:53.240Z,89.66
2018-11-22T11:16:53.226Z,89.87
2018-11-22T11:17:53.223Z,89.45
2018-11-22T11:18:53.217Z,90.08
2018-11-22T11:19:53.192Z,89.66
2018-11-22T11:20:53.180Z,89.56
2018-11-22T11:21:53.169Z,89.56
2018-11-22T11:22:53.161Z,89.45
2018-11-22T11:23:53.183Z,90.85
2018-11-22T11:24:53.196Z,91.02
2018-11-22T11:25:53.125Z,90.39
2018-11-22T11:26:53.114Z,89.98
2018-11-22T11:27:53.102Z,90.29
2018-11-22T11:28:53.094Z,90.29
2018-11-22T11:29:53.117Z,89.98
2018-11-22T11:30:53.070Z,89.56
2018-11-22T11:31:53.061Z,89.87
2018-11-22T11:32:53.046Z,89.98
2018-11-22T11:33:53.037Z,90.91
2018-11-22T11:34:53.025Z,89.98
2018-11-22T11:35:53.047Z,89.66
2018-11-22T11:36:53.004Z,89.41
2018-11-22T11:37:52.992Z,89.87
2018-11-22T11:38:52.980Z,89.76
2018-11-22T11:39:52.969Z,88.83
2018-11-22T11:40:52.958Z,88.68
2018-11-22T11:41:53.069Z,89.31
2018-11-22T11:42:52.936Z,90.08
2018-11-22T11:43:52.923Z,89.25
2018-11-22T11:44:52.912Z,89.66
2018-11-22T11:45:52.902Z,89.45
2018-11-22T11:46:52.892Z,89.41
2018-11-22T11:47:52.934Z,89.94
2018-11-22T11:48:52.870Z,88.73
2018-11-22T11:49:52.858Z,89.14
2018-11-22T11:50:52.848Z,90.04
2018-11-22T11:51:52.866Z,89.56
2018-11-22T11:52:52.826Z,89.62
2018-11-22T11:53:52.835Z,89.52
2018-11-22T11:54:52.806Z,89.83
2018-11-22T11:55:52.792Z,88.68
2018-11-22T11:56:52.780Z,88.79
2018-11-22T11:57:52.768Z,88.89
2018-11-22T11:58:52.770Z,89.94
2018-11-22T11:59:52.754Z,89.10
2018-11-22T12:00:52.749Z,88.68
2018-11-22T12:01:52.725Z,88.27
2018-11-22T12:02:52.713Z,88.27
2018-11-22T12:03:52.714Z,88.68
2018-11-22T12:04:52.694Z,88.58
2018-11-22T12:05:52.687Z,88.79
2018-11-22T12:06:52.668Z,89.10
2018-11-22T12:07:52.659Z,88.48
2018-11-22T12:08:52.658Z,89.00
2018-11-22T12:09:56.234Z,88.89
2018-11-22T12:10:52.625Z,88.68
2018-11-22T12:11:52.632Z,88.48
2018-11-22T12:12:52.602Z,88.58
2018-11-22T12:13:52.635Z,89.00
2018-11-22T12:14:52.580Z,88.27
2018-11-22T12:15:52.568Z,89.31
2018-11-22T12:16:52.557Z,88.17
2018-11-22T12:17:52.555Z,88.33
2018-11-22T12:18:52.535Z,88.37
2018-11-22T12:19:52.536Z,88.27
2018-11-22T12:20:52.513Z,87.96
2018-11-22T12:21:52.503Z,88.48
2018-11-22T12:22:52.489Z,87.96
2018-11-22T12:23:52.487Z,88.58
2018-11-22T12:24:52.481Z,88.27
2018-11-22T12:25:52.456Z,88.37
2018-11-22T12:26:52.491Z,89.10
2018-11-22T12:27:52.436Z,87.96
2018-11-22T12:28:52.422Z,88.17
2018-11-22T12:29:52.433Z,87.75
2018-11-22T12:30:52.415Z,88.27
2018-11-22T12:31:53.376Z,88.48
2018-11-22T12:32:52.380Z,88.68
2018-11-22T12:33:52.367Z,88.20
2018-11-22T12:34:52.358Z,88.68
2018-11-22T12:35:52.407Z,88.37
2018-11-22T12:36:52.335Z,88.17
2018-11-22T12:37:52.324Z,88.58
2018-11-22T12:38:52.314Z,88.68
2018-11-22T12:39:52.302Z,88.58
2018-11-22T12:40:52.290Z,88.06
2018-11-22T12:41:52.300Z,88.48
2018-11-22T12:42:52.267Z,88.37
2018-11-22T12:43:52.270Z,88.58
2018-11-22T12:44:52.246Z,88.27
2018-11-22T12:45:52.248Z,88.42
2018-11-22T12:46:52.223Z,88.52
2018-11-22T12:47:52.217Z,88.79
2018-11-22T12:48:52.200Z,89.00
2018-11-22T12:49:52.191Z,89.98
2018-11-22T12:50:52.212Z,88.27
2018-11-22T12:51:52.168Z,88.27
2018-11-22T12:52:52.158Z,88.06